Time;durP1;ratioP1;P1;durP2;ratioP2;P2;SDS_P1;SDS_P2;PMS_P1;PMS_P2;Temp;Humidity;BMP_temperature;BMP_pressure;BME280_temperature;BME280_humidity;BME280_pressure;Samples;Min_cycle;Max_cycle;Signal;HPM_P1;HPM_P2
2021/10/03 00:02:08;;;;;;;4.78;2.20;;;17.20;70.80;;;;;;5068035;28;20082;-71
2021/10/03 00:04:36;;;;;;;5.30;2.10;;;17.20;71.00;;;;;;5062308;28;20044;-70
2021/10/03 00:07:03;;;;;;;4.30;2.30;;;17.30;71.20;;;;;;5070742;28;20025;-69
2021/10/03 00:09:30;;;;;;;6.53;2.60;;;17.20;71.20;;;;;;5073669;28;20032;-69
2021/10/03 00:11:57;;;;;;;4.93;2.30;;;17.10;71.40;;;;;;5064629;28;20032;-69
2021/10/03 00:14:23;;;;;;;5.00;2.33;;;17.10;71.40;;;;;;5069329;28;20024;-69
2021/10/03 00:16:52;;;;;;;6.28;2.38;;;17.00;71.10;;;;;;5071032;28;20031;-69
2021/10/03 00:19:20;;;;;;;6.65;2.20;;;17.10;71.20;;;;;;5074390;28;20055;-70
2021/10/03 00:21:45;;;;;;;6.97;2.20;;;17.10;70.90;;;;;;5068930;28;20372;-71
2021/10/03 00:24:12;;;;;;;4.50;2.42;;;17.10;70.50;;;;;;5070969;28;20024;-71
2021/10/03 00:26:38;;;;;;;4.43;1.90;;;17.20;70.10;;;;;;5073392;28;20028;-70
2021/10/03 00:29:05;;;;;;;3.53;1.92;;;17.30;69.70;;;;;;5074368;28;20198;-70
2021/10/03 00:31:31;;;;;;;5.20;2.50;;;17.30;70.10;;;;;;5073129;28;20032;-70
2021/10/03 00:33:57;;;;;;;5.18;2.85;;;17.30;69.80;;;;;;5071857;28;20030;-70
2021/10/03 00:36:22;;;;;;;4.10;2.20;;;17.30;69.70;;;;;;5075042;28;20024;-70
2021/10/03 00:38:48;;;;;;;3.88;1.98;;;17.30;69.40;;;;;;5065240;28;20071;-70
2021/10/03 00:41:15;;;;;;;4.30;2.13;;;17.40;69.80;;;;;;5071003;28;20029;-70
2021/10/03 00:43:41;;;;;;;5.15;2.15;;;17.40;69.40;;;;;;5070484;28;20077;-70
2021/10/03 00:46:07;;;;;;;5.95;2.65;;;17.40;69.20;;;;;;5074391;28;20028;-69
2021/10/03 00:48:32;;;;;;;5.30;2.28;;;17.40;69.00;;;;;;5072636;28;20541;-69
2021/10/03 00:50:58;;;;;;;4.38;2.20;;;17.60;68.40;;;;;;5074347;28;20024;-69
2021/10/03 00:53:27;;;;;;;7.75;2.72;;;17.60;68.20;;;;;;5075727;28;20104;-69
2021/10/03 00:55:53;;;;;;;5.05;2.30;;;17.60;67.80;;;;;;5072893;28;20094;-69
2021/10/03 00:58:19;;;;;;;3.90;2.05;;;17.70;67.70;;;;;;5069942;28;20333;-69
2021/10/03 01:00:46;;;;;;;4.50;2.00;;;17.80;67.60;;;;;;5071797;28;20033;-70
2021/10/03 01:03:12;;;;;;;5.25;1.90;;;17.80;67.00;;;;;;5069951;28;20033;-69
2021/10/03 01:05:38;;;;;;;4.50;2.20;;;17.90;67.00;;;;;;5074368;28;20029;-68
2021/10/03 01:08:05;;;;;;;5.50;2.17;;;17.90;66.90;;;;;;5073762;28;20024;-69
2021/10/03 01:10:32;;;;;;;4.25;2.00;;;17.90;66.90;;;;;;5072231;28;20146;-70
2021/10/03 01:13:11;;;;;;;4.32;2.13;;;17.90;66.50;;;;;;5071525;28;20029;-69
2021/10/03 01:15:42;;;;;;;4.18;2.13;;;18.10;66.30;;;;;;5074319;28;20313;-69
2021/10/03 01:18:10;;;;;;;4.57;2.08;;;18.00;66.40;;;;;;5071843;28;20117;-69
2021/10/03 01:20:36;;;;;;;4.70;2.40;;;18.00;66.30;;;;;;5073092;28;20051;-69
2021/10/03 01:23:06;;;;;;;5.90;2.17;;;18.10;66.00;;;;;;5071788;28;20125;-69
2021/10/03 01:25:34;;;;;;;3.97;1.95;;;18.10;66.10;;;;;;5060653;28;20031;-69
2021/10/03 01:28:00;;;;;;;4.53;2.20;;;18.10;65.80;;;;;;5073372;28;20078;-70
2021/10/03 01:30:26;;;;;;;7.72;2.55;;;18.10;66.00;;;;;;5070693;28;20361;-70
2021/10/03 01:32:54;;;;;;;5.25;2.28;;;18.10;65.70;;;;;;5073457;28;20020;-69
2021/10/03 01:35:20;;;;;;;5.43;2.28;;;18.10;65.70;;;;;;5069825;28;20021;-70
2021/10/03 01:37:49;;;;;;;5.38;2.22;;;18.10;65.50;;;;;;5069041;28;20031;-70
2021/10/03 01:40:16;;;;;;;5.45;2.25;;;18.10;65.60;;;;;;5069806;28;20180;-70
2021/10/03 01:42:43;;;;;;;5.15;2.13;;;18.10;65.70;;;;;;5069071;28;20120;-70
2021/10/03 01:45:13;;;;;;;5.40;2.00;;;18.10;65.00;;;;;;5071472;28;20037;-70
2021/10/03 01:48:13;;;;;;;5.03;1.85;;;18.20;65.10;;;;;;5069807;28;20312;-70
2021/10/03 01:50:44;;;;;;;7.25;3.05;;;18.10;65.60;;;;;;5069630;28;20020;-70
2021/10/03 01:53:14;;;;;;;5.13;2.33;;;18.10;65.30;;;;;;5073556;28;20029;-70
2021/10/03 01:55:40;;;;;;;6.43;2.63;;;18.20;65.00;;;;;;5054439;28;20060;-70
2021/10/03 01:58:07;;;;;;;4.20;2.08;;;18.20;65.10;;;;;;5071514;28;20033;-70
2021/10/03 02:00:34;;;;;;;5.07;2.20;;;18.10;65.50;;;;;;5072565;28;20034;-70
2021/10/03 02:03:02;;;;;;;5.45;2.10;;;18.10;65.60;;;;;;5059733;28;20024;-70
2021/10/03 02:05:38;;;;;;;4.82;2.20;;;18.00;65.80;;;;;;5062507;28;20028;-69
2021/10/03 02:08:05;;;;;;;4.32;1.92;;;17.90;66.10;;;;;;5072457;28;20364;-70
2021/10/03 02:10:31;;;;;;;5.38;1.98;;;18.00;65.80;;;;;;5070708;28;20024;-70
2021/10/03 02:12:57;;;;;;;4.97;2.15;;;17.90;66.00;;;;;;5072721;28;20028;-70
2021/10/03 02:15:23;;;;;;;5.97;2.35;;;18.00;65.80;;;;;;5072173;28;20059;-70
2021/10/03 02:17:49;;;;;;;4.60;2.15;;;18.00;65.80;;;;;;5071771;28;20469;-69
2021/10/03 02:20:17;;;;;;;5.20;2.20;;;18.00;65.80;;;;;;5075582;28;20122;-70
2021/10/03 02:22:44;;;;;;;23.23;2.40;;;18.10;66.10;;;;;;5073099;28;20047;-70
2021/10/03 02:25:10;;;;;;;5.78;2.05;;;18.00;66.00;;;;;;5069663;28;20130;-69
2021/10/03 02:27:36;;;;;;;7.45;2.67;;;18.00;66.10;;;;;;5072207;28;20028;-70
2021/10/03 02:30:07;;;;;;;4.57;2.28;;;18.00;66.00;;;;;;5071794;28;20451;-70
2021/10/03 02:32:33;;;;;;;5.35;2.40;;;17.90;66.20;;;;;;5066871;28;20054;-71
2021/10/03 02:35:02;;;;;;;4.38;2.20;;;18.00;66.10;;;;;;5069123;28;20040;-70
2021/10/03 02:37:28;;;;;;;4.38;2.22;;;17.90;66.00;;;;;;5068066;28;20324;-70
2021/10/03 02:39:54;;;;;;;5.03;2.30;;;17.90;66.60;;;;;;5066381;28;20039;-70
2021/10/03 02:42:19;;;;;;;5.07;2.15;;;17.80;66.70;;;;;;5069854;28;20036;-70
2021/10/03 02:44:45;;;;;;;4.38;2.35;;;17.80;66.90;;;;;;5075094;28;20479;-70
2021/10/03 02:47:12;;;;;;;5.40;2.22;;;17.70;67.00;;;;;;5071275;28;20115;-70
2021/10/03 02:49:43;;;;;;;4.47;2.08;;;17.70;67.10;;;;;;5070235;28;20020;-70
2021/10/03 02:52:09;;;;;;;4.20;2.38;;;17.70;67.10;;;;;;5072259;28;20021;-70
2021/10/03 02:54:36;;;;;;;5.93;2.13;;;17.70;67.30;;;;;;5072585;28;20381;-70
2021/10/03 02:57:04;;;;;;;4.82;2.35;;;17.60;66.80;;;;;;5068670;28;20023;-70
2021/10/03 02:59:29;;;;;;;5.38;1.98;;;17.70;66.70;;;;;;5076447;28;20021;-70
2021/10/03 03:01:57;;;;;;;4.22;2.42;;;17.80;66.50;;;;;;5069364;28;20871;-70
2021/10/03 03:04:23;;;;;;;6.72;2.50;;;17.80;66.70;;;;;;5075925;28;20070;-69
2021/10/03 03:06:49;;;;;;;4.30;2.10;;;17.70;66.80;;;;;;5074830;28;20025;-69
2021/10/03 03:09:17;;;;;;;4.45;2.30;;;17.70;66.50;;;;;;5075888;28;20037;-68
2021/10/03 03:11:43;;;;;;;4.57;2.25;;;17.70;66.30;;;;;;5072280;28;20417;-68
2021/10/03 03:14:15;;;;;;;5.82;2.15;;;17.90;66.40;;;;;;5066325;28;20372;-70
2021/10/03 03:16:43;;;;;;;4.18;2.30;;;17.80;66.40;;;;;;5075374;28;20028;-70
2021/10/03 03:19:08;;;;;;;4.13;2.05;;;17.70;66.40;;;;;;5074215;28;20056;-69
2021/10/03 03:21:34;;;;;;;5.03;2.35;;;17.60;66.80;;;;;;5075536;28;20032;-69
2021/10/03 03:24:00;;;;;;;4.63;2.40;;;17.60;66.80;;;;;;5073844;28;20440;-69
2021/10/03 03:26:25;;;;;;;4.55;2.10;;;17.60;66.70;;;;;;5069921;28;20115;-69
2021/10/03 03:28:51;;;;;;;4.47;2.00;;;17.60;66.40;;;;;;5075495;28;20025;-69
2021/10/03 03:31:17;;;;;;;5.28;2.30;;;17.70;66.50;;;;;;5075450;28;20032;-70
2021/10/03 03:33:42;;;;;;;4.75;2.33;;;17.60;66.80;;;;;;5074361;28;20028;-69
2021/10/03 03:36:08;;;;;;;4.38;2.20;;;17.50;67.20;;;;;;5069208;28;20081;-69
2021/10/03 03:38:36;;;;;;;5.05;2.20;;;17.40;67.40;;;;;;5068288;28;20317;-69
2021/10/03 03:41:05;;;;;;;6.28;2.50;;;17.40;67.50;;;;;;5066040;28;20020;-69
2021/10/03 03:43:30;;;;;;;6.18;2.35;;;17.40;67.80;;;;;;5074934;28;20432;-69
2021/10/03 03:45:56;;;;;;;4.75;2.20;;;17.30;68.20;;;;;;5073059;28;20040;-69
2021/10/03 03:48:22;;;;;;;5.22;2.65;;;17.20;68.20;;;;;;5072653;28;20020;-69
2021/10/03 03:50:48;;;;;;;5.78;2.28;;;17.20;68.30;;;;;;5075104;28;20044;-68
2021/10/03 03:53:13;;;;;;;4.80;2.40;;;17.20;68.10;;;;;;5075407;28;20035;-69
2021/10/03 03:55:39;;;;;;;5.38;2.22;;;17.30;67.90;;;;;;5074386;28;20065;-69
2021/10/03 03:58:05;;;;;;;4.40;2.05;;;17.30;68.20;;;;;;5074004;28;20035;-69
2021/10/03 04:00:30;;;;;;;4.97;2.20;;;17.30;68.10;;;;;;5074686;28;20115;-69
2021/10/03 04:02:56;;;;;;;5.18;2.50;;;17.20;68.50;;;;;;5068665;28;20028;-69
2021/10/03 04:05:22;;;;;;;6.28;2.67;;;17.20;68.20;;;;;;5060731;28;20044;-69
2021/10/03 04:07:47;;;;;;;4.75;2.40;;;17.30;68.00;;;;;;5055287;28;20056;-69
2021/10/03 04:10:13;;;;;;;4.45;2.45;;;17.40;68.00;;;;;;5067016;28;20026;-69
2021/10/03 04:12:39;;;;;;;5.53;2.72;;;17.30;68.00;;;;;;5074890;28;20021;-69
2021/10/03 04:15:07;;;;;;;6.47;2.70;;;17.30;68.00;;;;;;5074608;28;20424;-69
2021/10/03 04:17:33;;;;;;;4.28;2.40;;;17.30;67.90;;;;;;5074722;28;20447;-69
2021/10/03 04:20:03;;;;;;;4.63;2.15;;;17.30;68.40;;;;;;5076027;28;20111;-69
2021/10/03 04:22:29;;;;;;;5.68;2.33;;;17.20;68.70;;;;;;5075681;28;20051;-69
2021/10/03 04:24:55;;;;;;;5.43;2.25;;;17.20;68.60;;;;;;5072867;28;20056;-69
2021/10/03 04:27:23;;;;;;;4.72;2.50;;;17.30;68.30;;;;;;5077347;28;20036;-69
2021/10/03 04:29:51;;;;;;;6.18;2.30;;;17.20;68.40;;;;;;5075987;28;20075;-70
2021/10/03 04:32:17;;;;;;;4.90;2.50;;;17.20;68.80;;;;;;5070067;28;20032;-70
2021/10/03 04:34:43;;;;;;;4.60;2.25;;;17.20;68.80;;;;;;5072700;28;20025;-69
2021/10/03 04:37:09;;;;;;;5.03;2.10;;;17.30;68.30;;;;;;5071025;28;20095;-69
2021/10/03 04:39:36;;;;;;;4.43;2.33;;;17.30;67.90;;;;;;5074707;28;20039;-69
2021/10/03 04:42:02;;;;;;;4.55;2.28;;;17.20;68.90;;;;;;5067607;28;20031;-69
2021/10/03 04:44:28;;;;;;;6.28;2.35;;;17.10;69.00;;;;;;5073799;28;20020;-69
2021/10/03 04:46:54;;;;;;;4.97;2.40;;;17.10;69.50;;;;;;5074236;28;20064;-70
2021/10/03 04:49:20;;;;;;;4.95;2.30;;;17.00;69.70;;;;;;5071805;28;20693;-70
2021/10/03 04:51:46;;;;;;;4.35;2.30;;;17.00;69.70;;;;;;5076535;28;20409;-70
2021/10/03 04:54:12;;;;;;;4.40;2.25;;;17.00;70.00;;;;;;5074173;28;20036;-70
2021/10/03 04:56:37;;;;;;;5.40;2.42;;;17.00;69.60;;;;;;5072820;28;20115;-70
2021/10/03 04:59:03;;;;;;;4.30;2.30;;;17.10;69.10;;;;;;5072007;28;20078;-70
2021/10/03 05:01:29;;;;;;;4.40;2.25;;;17.30;68.30;;;;;;5070803;28;20382;-70
2021/10/03 05:03:54;;;;;;;4.65;2.40;;;17.40;68.50;;;;;;5072973;28;20039;-70
2021/10/03 05:06:20;;;;;;;4.13;2.35;;;17.40;68.60;;;;;;5071919;28;20028;-69
2021/10/03 05:08:46;;;;;;;4.35;2.40;;;17.30;68.30;;;;;;5071999;28;20041;-69
2021/10/03 05:11:12;;;;;;;5.07;2.45;;;17.40;68.50;;;;;;5072700;28;20066;-70
2021/10/03 05:13:37;;;;;;;4.63;2.30;;;17.30;69.40;;;;;;5072430;28;20428;-69
2021/10/03 05:16:04;;;;;;;4.78;2.42;;;17.20;69.60;;;;;;5072639;28;20042;-69
2021/10/03 05:18:29;;;;;;;4.38;2.20;;;17.20;69.10;;;;;;5073550;28;20056;-69
2021/10/03 05:20:55;;;;;;;4.80;2.47;;;17.30;68.50;;;;;;5072578;28;20033;-69
2021/10/03 05:23:21;;;;;;;4.68;2.35;;;17.40;68.40;;;;;;5071798;28;20298;-69
2021/10/03 05:25:46;;;;;;;4.85;2.50;;;17.40;68.50;;;;;;5073309;28;20039;-70
2021/10/03 05:28:12;;;;;;;4.22;2.30;;;17.40;68.80;;;;;;5062260;28;20025;-69
2021/10/03 05:30:38;;;;;;;6.00;2.50;;;17.30;68.80;;;;;;5074055;28;20329;-69
2021/10/03 05:33:04;;;;;;;5.28;2.70;;;17.30;69.60;;;;;;5071555;28;20421;-69
2021/10/03 05:35:29;;;;;;;4.70;2.72;;;17.40;68.50;;;;;;5073513;28;20033;-69
2021/10/03 05:37:55;;;;;;;5.53;2.22;;;17.40;68.60;;;;;;5061984;28;20039;-69
2021/10/03 05:40:21;;;;;;;5.07;2.40;;;17.40;69.30;;;;;;5060224;28;20140;-69
2021/10/03 05:42:46;;;;;;;4.57;2.30;;;17.30;69.70;;;;;;5072036;28;20444;-69
2021/10/03 05:45:12;;;;;;;4.75;2.75;;;17.20;70.60;;;;;;5072607;28;20082;-69
2021/10/03 05:47:38;;;;;;;6.68;2.40;;;17.10;70.60;;;;;;5071713;28;20314;-69
2021/10/03 05:50:05;;;;;;;7.15;2.90;;;17.10;70.80;;;;;;5071969;28;20405;-69
2021/10/03 05:52:34;;;;;;;4.40;2.33;;;17.20;71.00;;;;;;5073806;28;20032;-69
2021/10/03 05:54:59;;;;;;;4.72;2.60;;;17.20;70.30;;;;;;5071065;28;20033;-69
2021/10/03 05:57:25;;;;;;;4.50;2.13;;;17.40;70.30;;;;;;5073134;28;20031;-69
2021/10/03 05:59:51;;;;;;;5.78;2.35;;;17.40;70.50;;;;;;5071830;28;20435;-68
2021/10/03 06:02:16;;;;;;;5.28;2.60;;;17.40;70.60;;;;;;5057859;28;20162;-68
2021/10/03 06:04:42;;;;;;;5.82;2.30;;;17.50;70.30;;;;;;5059739;28;20117;-68
2021/10/03 06:07:07;;;;;;;4.95;2.42;;;17.60;70.60;;;;;;5071565;28;20032;-68
2021/10/03 06:09:33;;;;;;;4.85;2.35;;;17.60;70.50;;;;;;5072801;28;20322;-70
2021/10/03 06:11:59;;;;;;;7.95;3.20;;;17.70;69.90;;;;;;5069156;28;20024;-69
2021/10/03 06:14:25;;;;;;;6.03;2.38;;;17.80;70.20;;;;;;5069664;28;20024;-70
2021/10/03 06:16:50;;;;;;;4.25;2.13;;;17.90;70.30;;;;;;5073928;28;20035;-69
2021/10/03 06:19:16;;;;;;;6.97;2.40;;;17.90;70.20;;;;;;5070629;28;20044;-69
2021/10/03 06:21:42;;;;;;;4.72;2.30;;;18.00;70.60;;;;;;5065061;28;20029;-68
2021/10/03 06:24:11;;;;;;;5.30;2.33;;;18.10;70.80;;;;;;5073149;28;20039;-71
2021/10/03 06:26:37;;;;;;;7.32;2.63;;;18.20;70.70;;;;;;5071367;28;21987;-69
2021/10/03 06:29:03;;;;;;;5.93;2.17;;;18.30;70.90;;;;;;5064633;28;20101;-69
2021/10/03 06:31:29;;;;;;;4.97;2.38;;;18.50;69.70;;;;;;5073320;28;20051;-70
2021/10/03 06:33:55;;;;;;;5.65;2.40;;;18.60;69.50;;;;;;5077204;28;20030;-69
2021/10/03 06:36:21;;;;;;;4.93;2.13;;;18.80;69.70;;;;;;5077871;28;20108;-69
2021/10/03 06:38:47;;;;;;;4.60;2.30;;;18.90;69.60;;;;;;5080619;28;20431;-69
2021/10/03 06:41:12;;;;;;;6.53;2.08;;;19.00;69.90;;;;;;5076189;28;20025;-69
2021/10/03 06:43:41;;;;;;;5.88;2.38;;;19.00;70.00;;;;;;5075462;28;20024;-69
2021/10/03 06:46:08;;;;;;;5.43;2.55;;;19.00;70.70;;;;;;5078710;28;20028;-69
2021/10/03 06:48:34;;;;;;;4.35;2.00;;;18.90;70.90;;;;;;5079481;28;20436;-69
2021/10/03 06:50:59;;;;;;;6.22;2.20;;;19.00;69.60;;;;;;5078960;28;20102;-69
2021/10/03 06:53:26;;;;;;;4.95;2.40;;;19.20;69.60;;;;;;5079271;28;20025;-69
2021/10/03 06:55:54;;;;;;;3.70;1.92;;;19.30;68.70;;;;;;5069468;28;20025;-69
2021/10/03 06:58:20;;;;;;;3.80;2.00;;;19.40;69.30;;;;;;5074125;28;20029;-69
2021/10/03 07:00:46;;;;;;;3.75;2.08;;;19.50;68.70;;;;;;5074424;28;20032;-69
2021/10/03 07:03:12;;;;;;;3.80;1.95;;;19.50;68.80;;;;;;5076124;28;20040;-69
2021/10/03 07:05:40;;;;;;;4.70;2.08;;;19.40;69.20;;;;;;5076881;28;20364;-69
2021/10/03 07:08:06;;;;;;;5.32;1.83;;;19.30;69.10;;;;;;5079568;28;20032;-69
2021/10/03 07:10:32;;;;;;;4.25;2.08;;;19.20;69.90;;;;;;5077604;28;20310;-69
2021/10/03 07:12:58;;;;;;;4.47;1.88;;;19.10;69.60;;;;;;5076278;28;20145;-69
2021/10/03 07:15:24;;;;;;;3.42;1.95;;;19.10;69.40;;;;;;5076487;28;20508;-69
2021/10/03 07:17:50;;;;;;;3.95;2.08;;;19.00;70.10;;;;;;5079696;28;20353;-69
2021/10/03 07:20:16;;;;;;;4.63;1.90;;;19.00;70.00;;;;;;5078804;28;20040;-69
2021/10/03 07:22:42;;;;;;;6.38;2.17;;;19.00;70.50;;;;;;5069919;28;20032;-70
2021/10/03 07:25:08;;;;;;;3.90;1.90;;;19.00;70.30;;;;;;5077760;28;20029;-69
2021/10/03 07:27:34;;;;;;;4.18;2.22;;;19.00;70.20;;;;;;5078528;28;20032;-69
2021/10/03 07:30:00;;;;;;;5.53;2.08;;;19.00;70.20;;;;;;5076422;28;20039;-69
2021/10/03 07:32:26;;;;;;;3.58;1.90;;;19.00;70.90;;;;;;5078599;28;20329;-69
2021/10/03 07:34:52;;;;;;;3.78;1.67;;;19.10;70.30;;;;;;5074950;28;20025;-69
2021/10/03 07:37:18;;;;;;;5.97;1.95;;;19.10;70.00;;;;;;5079072;28;20033;-69
2021/10/03 07:39:46;;;;;;;4.13;1.63;;;19.10;69.80;;;;;;5068864;28;20029;-70
2021/10/03 07:42:12;;;;;;;6.40;2.42;;;19.20;69.60;;;;;;5063415;28;20109;-69
2021/10/03 07:44:38;;;;;;;3.60;1.80;;;19.20;68.90;;;;;;5074934;28;20317;-70
2021/10/03 07:47:04;;;;;;;3.72;1.63;;;19.20;68.70;;;;;;5068514;28;20032;-69
2021/10/03 07:49:30;;;;;;;3.80;1.77;;;19.30;69.20;;;;;;5070363;28;20409;-71
2021/10/03 07:51:56;;;;;;;5.55;1.80;;;19.30;69.40;;;;;;5075978;28;20027;-70
2021/10/03 07:54:22;;;;;;;3.97;1.73;;;19.20;70.60;;;;;;5075230;28;20035;-71
2021/10/03 07:56:48;;;;;;;4.40;1.90;;;19.20;69.80;;;;;;5074701;28;20032;-71
2021/10/03 07:59:14;;;;;;;6.93;1.80;;;19.20;70.40;;;;;;5073773;28;20195;-70
2021/10/03 08:01:40;;;;;;;5.68;2.13;;;19.20;69.60;;;;;;5076954;28;20040;-70
2021/10/03 08:04:06;;;;;;;5.43;1.95;;;19.30;69.30;;;;;;5075224;28;20024;-70
2021/10/03 08:06:32;;;;;;;4.43;2.08;;;19.30;69.70;;;;;;5074886;28;20028;-70
2021/10/03 08:08:58;;;;;;;4.30;1.80;;;19.30;69.20;;;;;;5077072;28;20443;-70
2021/10/03 08:11:24;;;;;;;4.22;1.65;;;19.40;69.00;;;;;;5075358;28;20028;-70
2021/10/03 08:13:51;;;;;;;3.72;1.80;;;19.50;68.90;;;;;;5072763;28;20047;-70
2021/10/03 08:16:18;;;;;;;4.55;1.80;;;19.50;68.80;;;;;;5077084;28;20036;-70
2021/10/03 08:18:48;;;;;;;6.40;1.80;;;19.60;68.80;;;;;;5077012;28;20055;-70
2021/10/03 08:21:15;;;;;;;3.80;1.80;;;19.70;69.20;;;;;;5077541;28;20036;-70
2021/10/03 08:23:46;;;;;;;4.25;1.83;;;19.80;68.10;;;;;;5077411;28;20325;-70
2021/10/03 08:26:12;;;;;;;3.38;1.65;;;19.90;69.60;;;;;;5076288;28;20061;-69
2021/10/03 08:28:38;;;;;;;3.90;1.83;;;20.10;69.30;;;;;;5077446;28;20115;-69
2021/10/03 08:31:04;;;;;;;4.78;1.92;;;20.30;68.40;;;;;;5074142;28;20166;-69
2021/10/03 08:33:30;;;;;;;3.78;1.70;;;20.40;68.30;;;;;;5074033;28;20027;-70
2021/10/03 08:35:55;;;;;;;4.25;1.70;;;20.80;67.50;;;;;;5074340;28;20027;-69
2021/10/03 08:38:21;;;;;;;3.90;1.60;;;21.40;66.10;;;;;;5076958;28;20099;-70
2021/10/03 08:40:47;;;;;;;3.90;1.80;;;21.50;65.60;;;;;;5075983;28;20108;-70
2021/10/03 08:43:12;;;;;;;3.80;1.70;;;21.30;65.60;;;;;;5070728;28;20041;-69
2021/10/03 08:45:44;;;;;;;3.78;1.80;;;21.10;66.30;;;;;;5067443;28;20028;-70
2021/10/03 08:48:13;;;;;;;4.30;1.88;;;20.80;66.90;;;;;;5075975;28;20028;-69
2021/10/03 08:50:40;;;;;;;3.55;1.70;;;20.40;67.90;;;;;;5076966;28;20071;-69
2021/10/03 08:53:06;;;;;;;3.50;1.83;;;20.30;67.40;;;;;;5076870;28;20016;-69
2021/10/03 08:55:31;;;;;;;3.30;1.55;;;20.30;68.10;;;;;;5074997;28;20456;-69
2021/10/03 08:57:57;;;;;;;3.58;1.80;;;20.10;68.20;;;;;;5076724;28;20051;-69
2021/10/03 09:00:27;;;;;;;3.63;1.50;;;20.10;68.20;;;;;;5075038;28;20089;-69
2021/10/03 09:03:04;;;;;;;3.47;1.80;;;20.20;67.90;;;;;;5076915;28;20333;-69
2021/10/03 09:05:32;;;;;;;3.75;1.60;;;20.10;67.70;;;;;;5076440;28;20028;-71
2021/10/03 09:08:04;;;;;;;3.38;1.58;;;20.20;66.90;;;;;;5076552;28;20029;-70
2021/10/03 09:10:47;;;;;;;4.00;2.05;;;20.30;66.80;;;;;;5074972;28;20025;-69
2021/10/03 09:13:14;;;;;;;3.25;1.52;;;20.40;66.80;;;;;;5075587;28;20024;-69
2021/10/03 09:15:39;;;;;;;3.90;1.80;;;20.40;67.80;;;;;;5075847;28;20313;-71
2021/10/03 09:18:07;;;;;;;3.30;1.60;;;20.40;67.50;;;;;;5070424;28;20048;-69
2021/10/03 09:20:33;;;;;;;5.25;1.92;;;20.50;67.40;;;;;;5066834;28;20020;-69
2021/10/03 09:23:11;;;;;;;3.83;1.77;;;20.70;67.80;;;;;;5076303;28;20024;-70
2021/10/03 09:25:38;;;;;;;3.67;1.95;;;21.00;66.10;;;;;;5066346;28;20464;-69
2021/10/03 09:28:07;;;;;;;3.80;2.05;;;21.10;67.50;;;;;;5075080;28;20033;-70
2021/10/03 09:30:36;;;;;;;3.42;1.80;;;21.00;67.20;;;;;;5074277;28;20119;-70
2021/10/03 09:33:02;;;;;;;3.95;1.90;;;21.00;66.80;;;;;;5068228;28;20337;-69
2021/10/03 09:35:42;;;;;;;3.25;1.65;;;21.10;66.50;;;;;;5075666;28;20031;-70
2021/10/03 09:38:12;;;;;;;5.22;1.50;;;21.30;66.70;;;;;;5060033;28;20716;-70
2021/10/03 09:40:39;;;;;;;3.92;1.80;;;21.70;65.80;;;;;;5055026;28;20058;-69
2021/10/03 09:43:05;;;;;;;6.10;1.80;;;22.00;64.60;;;;;;5073714;28;20032;-69
2021/10/03 09:45:32;;;;;;;4.38;1.73;;;22.00;65.10;;;;;;5074923;28;20024;-69
2021/10/03 09:48:00;;;;;;;5.60;1.80;;;22.10;63.60;;;;;;5075827;28;20035;-70
2021/10/03 09:50:26;;;;;;;3.88;1.65;;;22.10;64.80;;;;;;5074708;28;20021;-69
2021/10/03 09:52:52;;;;;;;2.85;1.33;;;22.10;64.60;;;;;;5075742;28;20028;-70
2021/10/03 09:55:19;;;;;;;6.70;1.80;;;21.90;65.20;;;;;;5071445;28;20025;-70
2021/10/03 09:57:45;;;;;;;4.25;2.00;;;21.80;65.70;;;;;;5075241;28;20067;-69
2021/10/03 10:00:18;;;;;;;3.97;1.88;;;21.90;66.60;;;;;;5066924;28;20028;-69
2021/10/03 10:02:45;;;;;;;3.42;1.77;;;22.10;66.20;;;;;;5073835;28;20421;-69
2021/10/03 10:05:11;;;;;;;4.20;2.00;;;22.30;66.00;;;;;;5075161;28;20032;-69
2021/10/03 10:07:38;;;;;;;4.70;2.28;;;22.40;65.40;;;;;;5075421;28;20081;-69
2021/10/03 10:10:06;;;;;;;3.83;2.10;;;22.50;65.90;;;;;;5074295;28;20456;-69
2021/10/03 10:12:36;;;;;;;4.95;1.95;;;22.50;66.00;;;;;;5072944;28;20074;-69
2021/10/03 10:15:04;;;;;;;3.83;2.10;;;22.60;66.10;;;;;;5071066;28;20032;-70
2021/10/03 10:17:35;;;;;;;4.40;2.10;;;22.20;67.10;;;;;;5074304;28;20043;-70
2021/10/03 10:20:27;;;;;;;3.80;1.90;;;22.10;67.20;;;;;;5062763;28;20478;-70
2021/10/03 10:22:55;;;;;;;4.45;1.95;;;21.90;68.20;;;;;;5065139;28;20318;-70
2021/10/03 10:25:41;;;;;;;3.45;1.90;;;21.90;67.70;;;;;;5065889;28;20377;-70
2021/10/03 10:28:10;;;;;;;3.75;1.88;;;21.80;67.60;;;;;;5064055;28;20029;-70
2021/10/03 10:30:57;;;;;;;6.03;2.00;;;21.80;66.10;;;;;;5072080;28;20028;-70
2021/10/03 10:33:22;;;;;;;7.22;1.95;;;21.80;67.10;;;;;;5068230;28;20050;-70
2021/10/03 10:35:50;;;;;;;4.50;2.10;;;21.90;67.60;;;;;;5071311;28;20027;-70
2021/10/03 10:38:18;;;;;;;3.70;1.95;;;22.10;66.20;;;;;;5060402;28;20025;-70
2021/10/03 10:40:44;;;;;;;4.35;1.70;;;22.20;65.80;;;;;;5062909;28;20073;-69
2021/10/03 10:43:09;;;;;;;4.50;1.95;;;22.10;65.80;;;;;;5072341;28;20482;-70
2021/10/03 10:45:37;;;;;;;3.83;2.17;;;22.00;66.20;;;;;;5057395;28;20029;-69
2021/10/03 10:48:08;;;;;;;3.35;1.80;;;21.90;66.40;;;;;;5063373;28;20032;-70
2021/10/03 10:50:38;;;;;;;5.43;2.00;;;21.80;67.10;;;;;;5067585;28;20054;-70
2021/10/03 10:53:22;;;;;;;4.35;1.95;;;21.50;67.20;;;;;;5062132;28;20374;-70
2021/10/03 10:56:18;;;;;;;5.68;2.40;;;21.40;67.20;;;;;;5070308;28;20097;-70
2021/10/03 10:58:53;;;;;;;4.38;2.20;;;21.20;68.20;;;;;;5064107;28;20163;-70
2021/10/03 11:01:30;;;;;;;3.95;2.13;;;21.10;67.50;;;;;;5068620;28;20460;-70
2021/10/03 11:04:00;;;;;;;5.15;2.15;;;21.00;67.80;;;;;;5060546;28;20029;-70
2021/10/03 11:06:31;;;;;;;5.10;2.00;;;21.00;67.10;;;;;;5066746;28;20082;-69
2021/10/03 11:08:58;;;;;;;4.30;1.92;;;21.00;67.70;;;;;;5067476;28;20025;-70
2021/10/03 11:11:57;;;;;;;4.07;2.10;;;21.00;68.60;;;;;;5065731;28;20037;-70
2021/10/03 11:14:26;;;;;;;4.68;1.95;;;21.00;67.40;;;;;;5067366;28;20032;-70
2021/10/03 11:17:06;;;;;;;4.10;2.00;;;21.00;66.60;;;;;;5069232;28;20413;-70
2021/10/03 11:19:45;;;;;;;4.55;1.90;;;21.10;66.70;;;;;;5064899;28;20103;-70
2021/10/03 11:22:19;;;;;;;3.80;1.90;;;21.20;66.10;;;;;;5061312;28;20024;-70
2021/10/03 11:24:51;;;;;;;5.45;1.90;;;21.40;66.00;;;;;;5069283;28;20036;-70
2021/10/03 11:27:18;;;;;;;5.80;1.75;;;21.50;65.40;;;;;;5062181;28;20095;-70
2021/10/03 11:29:51;;;;;;;6.53;2.10;;;21.60;65.10;;;;;;5067366;28;20029;-70
2021/10/03 11:32:22;;;;;;;4.53;2.00;;;21.90;64.70;;;;;;5075769;28;20043;-70
2021/10/03 11:34:50;;;;;;;3.97;2.10;;;22.30;64.00;;;;;;5068828;28;20037;-70
2021/10/03 11:37:29;;;;;;;4.03;1.90;;;22.40;63.90;;;;;;5077901;28;20020;-70
2021/10/03 11:40:06;;;;;;;5.00;1.90;;;22.60;63.30;;;;;;5068873;28;20032;-70
2021/10/03 11:42:47;;;;;;;3.70;1.70;;;22.80;63.30;;;;;;5073869;28;20050;-70
2021/10/03 11:45:16;;;;;;;4.75;1.90;;;22.90;62.70;;;;;;5073806;28;20024;-69
2021/10/03 11:47:49;;;;;;;5.45;1.70;;;23.00;63.40;;;;;;5076918;28;20032;-69
2021/10/03 11:50:42;;;;;;;3.80;2.08;;;23.00;62.00;;;;;;5068878;28;20028;-69
2021/10/03 11:53:23;;;;;;;4.32;1.95;;;23.10;62.70;;;;;;5079625;28;20082;-69
2021/10/03 11:55:51;;;;;;;4.85;2.10;;;22.90;62.60;;;;;;5070756;28;20047;-69
2021/10/03 11:58:19;;;;;;;6.57;2.40;;;22.80;63.00;;;;;;5073146;28;20052;-69
2021/10/03 12:00:58;;;;;;;3.30;1.73;;;22.50;64.30;;;;;;5074178;28;20298;-69
2021/10/03 12:03:34;;;;;;;4.32;1.90;;;22.30;64.30;;;;;;5074376;28;20021;-68
2021/10/03 12:06:19;;;;;;;4.18;1.70;;;22.40;64.20;;;;;;5062838;28;20033;-68
2021/10/03 12:08:46;;;;;;;7.35;2.13;;;22.40;64.40;;;;;;5071418;28;20032;-69
2021/10/03 12:11:12;;;;;;;3.88;1.70;;;22.60;64.70;;;;;;5068124;28;20052;-69
2021/10/03 12:13:39;;;;;;;3.17;1.85;;;23.00;63.80;;;;;;5058708;28;20029;-69
2021/10/03 12:16:12;;;;;;;5.10;1.80;;;23.40;62.70;;;;;;5069959;28;20303;-69
2021/10/03 12:18:50;;;;;;;3.75;2.00;;;23.70;63.20;;;;;;5059073;28;20057;-68
2021/10/03 12:21:27;;;;;;;6.60;2.90;;;23.80;63.20;;;;;;5065309;28;20032;-69
2021/10/03 12:24:04;;;;;;;4.45;1.80;;;23.60;62.90;;;;;;5062006;28;20021;-69
2021/10/03 12:26:32;;;;;;;3.80;2.05;;;23.30;63.40;;;;;;5067353;28;20029;-68
2021/10/03 12:29:04;;;;;;;4.78;2.45;;;23.00;64.90;;;;;;5062819;28;20079;-69
2021/10/03 12:31:39;;;;;;;4.03;2.20;;;22.70;65.20;;;;;;5064062;28;20317;-68
2021/10/03 12:34:07;;;;;;;5.97;2.45;;;22.50;65.70;;;;;;5076934;28;20024;-69
2021/10/03 12:36:33;;;;;;;6.07;2.58;;;22.60;64.90;;;;;;5064211;28;20032;-69
2021/10/03 12:38:59;;;;;;;7.55;3.22;;;22.60;65.60;;;;;;5076433;28;20025;-69
2021/10/03 12:41:25;;;;;;;5.45;2.30;;;22.60;65.70;;;;;;5070479;28;20029;-68
2021/10/03 12:43:53;;;;;;;6.65;2.30;;;22.70;65.50;;;;;;5072564;28;20024;-68
2021/10/03 12:46:20;;;;;;;4.57;2.13;;;22.60;64.70;;;;;;5074976;28;20024;-68
2021/10/03 12:48:46;;;;;;;3.72;2.03;;;22.70;65.50;;;;;;5075722;28;20048;-69
2021/10/03 12:51:12;;;;;;;3.90;1.88;;;22.80;64.20;;;;;;5074777;28;20033;-68
2021/10/03 12:53:37;;;;;;;5.07;2.47;;;22.80;64.00;;;;;;5071198;28;20031;-69